createdAt,value
2019-03-12T00:00:44.928Z,9.10
2019-03-12T00:03:33.251Z,12.67
2019-03-12T00:06:21.153Z,11.67
2019-03-12T00:09:08.980Z,11.00
2019-03-12T00:11:56.792Z,8.80
2019-03-12T00:14:44.654Z,9.40
2019-03-12T00:17:32.528Z,12.67
2019-03-12T00:20:20.672Z,10.93
2019-03-12T00:23:08.473Z,8.43
2019-03-12T00:25:49.433Z,11.27
2019-03-12T00:28:30.470Z,10.73
2019-03-12T00:31:11.132Z,7.80
2019-03-12T00:33:52.205Z,8.20
2019-03-12T00:36:33.616Z,10.33
2019-03-12T00:39:14.921Z,10.03
2019-03-12T00:41:55.750Z,7.67
2019-03-12T00:44:36.543Z,11.40
2019-03-12T00:47:17.245Z,11.63
2019-03-12T00:49:58.132Z,12.57
2019-03-12T00:52:39.395Z,10.07
2019-03-12T00:55:48.694Z,13.67
2019-03-12T00:58:17.390Z,10.30
2019-03-12T01:01:05.192Z,9.27
2019-03-12T01:03:53.261Z,9.07
2019-03-12T01:06:41.053Z,12.17
2019-03-12T01:09:21.751Z,16.03
2019-03-12T01:12:02.583Z,13.90
2019-03-12T01:14:43.561Z,11.00
2019-03-12T01:17:24.165Z,12.00
2019-03-12T01:20:05.269Z,10.77
2019-03-12T01:22:45.959Z,12.80
2019-03-12T01:25:26.980Z,8.83
2019-03-12T01:28:08.030Z,12.07
2019-03-12T01:30:48.411Z,9.10
2019-03-12T01:33:16.862Z,16.33
2019-03-12T01:36:04.642Z,8.83
2019-03-12T01:38:52.453Z,11.03
2019-03-12T01:41:40.232Z,10.83
2019-03-12T01:44:28.210Z,10.40
2019-03-12T01:47:16.014Z,15.67
2019-03-12T01:50:24.578Z,9.97
2019-03-12T01:53:12.374Z,17.80
2019-03-12T01:56:00.453Z,11.03
2019-03-12T01:58:48.262Z,13.53
2019-03-12T02:01:36.047Z,10.27
2019-03-12T02:04:24.001Z,14.13
2019-03-12T02:07:11.853Z,11.90
2019-03-12T02:09:59.649Z,9.83
2019-03-12T02:12:47.430Z,14.87
2019-03-12T02:15:35.225Z,9.37
2019-03-12T02:18:23.026Z,9.43
2019-03-12T02:21:10.791Z,8.40
2019-03-12T02:23:52.079Z,11.00
2019-03-12T02:26:32.898Z,8.33
2019-03-12T02:29:13.271Z,13.00
2019-03-12T02:31:54.326Z,11.00
2019-03-12T02:34:35.344Z,10.43
2019-03-12T02:37:16.297Z,9.17
2019-03-12T02:39:57.214Z,7.57
2019-03-12T02:42:37.860Z,10.20
2019-03-12T02:45:18.644Z,8.43
2019-03-12T02:47:59.852Z,12.23
2019-03-12T02:50:28.576Z,10.47
2019-03-12T02:53:16.775Z,7.87
2019-03-12T02:56:04.639Z,12.03
2019-03-12T02:58:52.443Z,10.13
2019-03-12T03:01:40.402Z,8.70
2019-03-12T03:04:28.226Z,11.77
2019-03-12T03:13:13.470Z,7.57
2019-03-12T03:16:01.280Z,10.80
2019-03-12T03:18:49.145Z,8.17
2019-03-12T03:21:37.123Z,9.67
2019-03-12T03:24:24.987Z,8.53
2019-03-12T03:27:13.203Z,8.80
2019-03-12T03:30:01.477Z,9.87
2019-03-12T03:32:42.409Z,9.67
2019-03-12T03:35:23.156Z,10.67
2019-03-12T03:38:03.783Z,11.83
2019-03-12T03:40:32.224Z,7.87
2019-03-12T03:43:20.021Z,9.17
2019-03-12T03:46:07.813Z,9.40
2019-03-12T03:48:55.846Z,10.13
2019-03-12T03:51:43.886Z,9.73
2019-03-12T03:54:31.685Z,12.33
2019-03-12T03:57:19.475Z,13.00
2019-03-12T04:00:28.291Z,14.60
2019-03-12T04:03:16.186Z,13.73
2019-03-12T04:06:04.046Z,14.97
2019-03-12T04:08:51.930Z,20.40
2019-03-12T04:11:39.877Z,12.07
2019-03-12T04:14:27.604Z,15.07
2019-03-12T04:17:15.409Z,11.40
2019-03-12T04:20:04.235Z,21.60
2019-03-12T04:22:52.289Z,16.67
2019-03-12T04:25:40.785Z,13.07
2019-03-12T04:28:28.802Z,17.10
2019-03-12T04:31:16.800Z,15.50
2019-03-12T04:33:57.873Z,15.60
2019-03-12T04:36:41.119Z,14.70
2019-03-12T04:42:04.919Z,15.93
2019-03-12T04:44:45.532Z,17.80
2019-03-12T04:50:30.954Z,18.23
2019-03-12T04:53:12.762Z,18.57
2019-03-12T04:55:54.478Z,19.37
2019-03-12T04:58:23.246Z,16.47
2019-03-12T05:01:11.507Z,13.67
2019-03-12T05:03:59.328Z,17.13
2019-03-12T05:06:47.175Z,20.70
2019-03-12T05:09:35.111Z,17.13
2019-03-12T05:12:23.620Z,18.47
2019-03-12T05:15:12.571Z,18.40
2019-03-12T05:18:00.559Z,20.80
2019-03-12T05:20:48.620Z,18.03
2019-03-12T05:23:31.081Z,21.77
2019-03-12T05:26:12.680Z,24.43
2019-03-12T05:28:55.369Z,21.70
2019-03-12T05:34:23.084Z,17.50
2019-03-12T05:37:03.333Z,18.20
2019-03-12T05:39:47.566Z,23.10
2019-03-12T05:42:29.238Z,24.93
2019-03-12T05:45:10.466Z,25.87
2019-03-12T05:47:51.256Z,21.23
2019-03-12T05:50:33.259Z,21.00
2019-03-12T05:53:15.527Z,22.50
2019-03-12T05:55:58.226Z,27.63
2019-03-12T05:58:39.367Z,19.33
2019-03-12T06:01:20.962Z,24.63
2019-03-12T06:06:50.571Z,27.13
2019-03-12T06:12:21.859Z,25.50
2019-03-12T06:15:03.122Z,26.10
2019-03-12T06:17:45.222Z,25.40
2019-03-12T06:23:15.657Z,23.17
2019-03-12T06:25:56.856Z,23.83
2019-03-12T06:28:39.958Z,22.67
2019-03-12T06:34:11.517Z,21.23
2019-03-12T06:39:53.264Z,25.73
2019-03-12T06:42:35.663Z,18.57
2019-03-12T06:48:13.369Z,20.07
2019-03-12T06:54:00.008Z,22.53
2019-03-12T06:59:34.975Z,24.00
2019-03-12T07:08:18.733Z,17.17
2019-03-12T07:11:08.154Z,16.43
2019-03-12T07:13:51.235Z,17.90
2019-03-12T07:19:47.517Z,17.93
2019-03-12T07:25:40.327Z,20.63
2019-03-12T07:34:36.247Z,18.10
2019-03-12T07:40:04.090Z,15.63
2019-03-12T07:42:47.014Z,14.47
2019-03-12T07:57:26.534Z,13.97
2019-03-12T08:02:57.685Z,15.27
2019-03-12T08:08:43.420Z,16.10
2019-03-12T08:17:19.032Z,15.77
2019-03-12T08:40:32.198Z,10.63
2019-03-12T08:49:21.689Z,11.83
2019-03-12T08:57:50.723Z,18.00
2019-03-12T09:06:29.605Z,10.80
2019-03-12T09:14:54.941Z,14.90
2019-03-12T10:02:13.124Z,20.53
2019-03-12T10:05:03.092Z,15.07
2019-03-12T10:08:12.033Z,12.30
2019-03-12T10:17:00.473Z,15.20
2019-03-12T12:31:55.225Z,11.53
2019-03-12T12:34:36.283Z,13.27
2019-03-12T12:37:17.588Z,10.47
2019-03-12T12:39:46.302Z,13.33
2019-03-12T12:42:36.160Z,12.33
2019-03-12T12:45:43.666Z,13.03
2019-03-12T12:48:31.838Z,12.40
2019-03-12T12:51:19.602Z,11.57
2019-03-12T12:54:09.743Z,8.33
2019-03-12T12:56:57.275Z,11.50
2019-03-12T12:59:45.076Z,10.23
2019-03-12T13:02:32.876Z,11.13
2019-03-12T13:05:20.638Z,10.83
2019-03-12T13:08:08.431Z,9.53
2019-03-12T13:10:56.294Z,10.10
2019-03-12T13:13:44.196Z,11.30
2019-03-12T13:16:32.030Z,11.37
2019-03-12T13:19:13.163Z,9.87
2019-03-12T13:21:55.526Z,9.70
2019-03-12T13:24:36.406Z,14.67
2019-03-12T13:27:17.315Z,11.43
2019-03-12T13:29:58.259Z,10.37
2019-03-12T13:32:39.036Z,11.27
2019-03-12T13:35:19.808Z,8.70
2019-03-12T13:40:46.854Z,8.50
2019-03-12T13:49:13.901Z,13.00
2019-03-12T13:51:55.637Z,11.73
2019-03-12T13:57:37.108Z,9.87
2019-03-12T14:00:19.771Z,13.23
2019-03-12T14:03:00.498Z,10.50
2019-03-12T14:05:41.792Z,8.97
2019-03-12T14:08:22.739Z,9.17
2019-03-12T14:11:03.196Z,7.63
2019-03-12T14:13:46.987Z,8.63
2019-03-12T14:16:27.550Z,16.13
2019-03-12T14:19:08.628Z,10.30
2019-03-12T14:21:50.318Z,9.93
2019-03-12T14:24:19.028Z,8.40
2019-03-12T14:27:06.800Z,12.27
2019-03-12T14:30:13.798Z,10.27
2019-03-12T14:33:01.886Z,13.13
2019-03-12T14:35:51.846Z,10.03
2019-03-12T14:38:39.759Z,10.63
2019-03-12T14:41:27.557Z,9.03
2019-03-12T14:44:15.446Z,11.30
2019-03-12T14:47:06.073Z,12.93
2019-03-12T14:49:53.148Z,9.73
2019-03-12T14:53:01.932Z,9.90
2019-03-12T14:55:50.014Z,14.20
2019-03-12T14:58:37.806Z,14.07
2019-03-12T15:01:25.696Z,12.37
2019-03-12T15:04:15.035Z,10.00
2019-03-12T15:07:02.981Z,10.57
2019-03-12T15:09:50.755Z,10.73
2019-03-12T15:12:38.795Z,10.63
2019-03-12T15:15:26.557Z,10.20
2019-03-12T15:18:21.763Z,13.13
2019-03-12T15:21:09.618Z,10.93
2019-03-12T15:23:57.553Z,9.67
2019-03-12T15:26:45.422Z,12.07
2019-03-12T15:29:33.210Z,7.60
2019-03-12T15:32:21.005Z,10.70
2019-03-12T15:35:02.026Z,11.03
2019-03-12T15:37:42.786Z,9.27
2019-03-12T15:40:23.806Z,9.33
2019-03-12T15:43:04.797Z,11.77
2019-03-12T15:45:45.409Z,10.43
2019-03-12T15:48:26.240Z,15.50
2019-03-12T15:51:07.103Z,7.33
2019-03-12T15:53:47.998Z,9.77
2019-03-12T15:56:28.411Z,11.07
2019-03-12T15:59:09.540Z,7.40
2019-03-12T16:01:50.501Z,13.97
2019-03-12T16:04:18.934Z,6.90
2019-03-12T16:07:06.727Z,9.57
2019-03-12T16:09:54.783Z,10.00
2019-03-12T16:12:42.550Z,12.50
2019-03-12T16:15:30.342Z,7.97
2019-03-12T16:18:18.097Z,8.30
2019-03-12T16:21:05.954Z,9.50
2019-03-12T16:23:54.107Z,8.13
2019-03-12T16:26:41.877Z,9.00
2019-03-12T16:29:29.726Z,10.30
2019-03-12T16:31:58.170Z,12.67
2019-03-12T16:34:39.266Z,11.03
2019-03-12T16:37:20.202Z,14.57
2019-03-12T16:40:01.100Z,11.03
2019-03-12T16:42:41.786Z,9.10
2019-03-12T16:45:22.422Z,7.00
2019-03-12T16:48:03.384Z,10.90
2019-03-12T16:50:44.520Z,8.37
2019-03-12T16:53:24.852Z,10.73
2019-03-12T16:56:05.954Z,8.70
2019-03-12T16:58:46.855Z,8.23
2019-03-12T17:01:27.630Z,8.77
2019-03-12T17:04:08.450Z,16.23
2019-03-12T17:06:49.039Z,13.47
2019-03-12T17:09:29.834Z,6.13
2019-03-12T17:12:10.603Z,9.33
2019-03-12T17:14:51.437Z,9.40
2019-03-12T17:17:32.418Z,9.63
2019-03-12T17:20:13.436Z,6.27
2019-03-12T17:22:52.239Z,13.07
2019-03-12T17:25:40.042Z,11.13
2019-03-12T17:28:27.845Z,11.03
2019-03-12T17:31:15.643Z,12.93
2019-03-12T17:34:03.411Z,11.57
2019-03-12T17:36:51.198Z,15.10
2019-03-12T17:39:38.969Z,8.97
2019-03-12T17:42:26.776Z,8.87
2019-03-12T17:45:14.614Z,10.60
2019-03-12T17:48:02.703Z,12.03
2019-03-12T17:50:50.753Z,9.30
2019-03-12T17:53:38.545Z,12.63
2019-03-12T17:56:26.322Z,11.83
2019-03-12T17:59:14.113Z,9.70
2019-03-12T18:02:01.906Z,8.67
2019-03-12T18:04:49.693Z,8.17
2019-03-12T18:07:37.489Z,10.03
2019-03-12T18:10:25.242Z,8.33
2019-03-12T18:13:13.400Z,9.83
2019-03-12T18:16:01.545Z,9.67
2019-03-12T18:18:49.326Z,11.00
2019-03-12T18:21:30.005Z,9.77
2019-03-12T18:24:10.874Z,8.10
2019-03-12T18:26:51.848Z,9.57
2019-03-12T18:29:32.676Z,11.73
2019-03-12T18:32:13.632Z,9.53
2019-03-12T18:34:54.207Z,7.30
2019-03-12T18:37:34.841Z,8.37
2019-03-12T18:40:15.709Z,9.97
2019-03-12T18:42:56.655Z,9.73
2019-03-12T18:45:37.606Z,5.60
2019-03-12T18:48:18.146Z,10.07
2019-03-12T18:50:58.754Z,10.93
2019-03-12T18:53:39.405Z,9.37
2019-03-12T18:56:20.189Z,10.20
2019-03-12T18:59:00.914Z,5.40
2019-03-12T19:01:41.630Z,9.27
2019-03-12T19:04:22.378Z,11.47
2019-03-12T19:07:02.980Z,10.03
2019-03-12T19:09:43.722Z,14.13
2019-03-12T19:12:24.374Z,12.10
2019-03-12T19:15:05.377Z,10.03
2019-03-12T19:17:45.833Z,10.07
2019-03-12T19:20:26.573Z,13.63
2019-03-12T19:23:07.910Z,13.33
2019-03-12T19:25:48.778Z,7.93
2019-03-12T19:28:29.949Z,10.70
2019-03-12T19:31:15.389Z,10.07
2019-03-12T19:33:57.318Z,7.10
2019-03-12T19:36:38.375Z,9.10
2019-03-12T19:39:19.231Z,9.57
2019-03-12T19:42:00.095Z,10.23
2019-03-12T19:44:41.194Z,9.17
2019-03-12T19:47:22.299Z,12.00
2019-03-12T19:50:03.173Z,9.43
2019-03-12T19:52:43.768Z,9.50
2019-03-12T19:55:24.381Z,9.67
2019-03-12T19:58:05.525Z,9.07
2019-03-12T20:00:46.385Z,10.37
2019-03-12T20:03:26.994Z,8.50
2019-03-12T20:06:07.504Z,8.97
2019-03-12T20:08:48.138Z,5.87
2019-03-12T20:11:28.929Z,11.40
2019-03-12T20:14:10.127Z,11.53
2019-03-12T20:16:50.871Z,8.07
2019-03-12T20:19:31.918Z,8.03
2019-03-12T20:22:39.095Z,12.43
2019-03-12T20:25:47.600Z,6.00
2019-03-12T20:28:54.721Z,7.63
2019-03-12T20:32:01.820Z,10.70
2019-03-12T20:35:09.090Z,13.90
2019-03-12T20:38:16.419Z,8.70
2019-03-12T20:41:24.939Z,9.27
2019-03-12T20:44:33.451Z,5.70
2019-03-12T20:47:40.550Z,7.43
2019-03-12T20:50:47.668Z,9.23
2019-03-12T20:53:54.832Z,7.17
2019-03-12T20:57:01.933Z,11.80
2019-03-12T21:00:09.478Z,6.13
2019-03-12T21:03:17.977Z,7.33
2019-03-12T21:06:25.091Z,7.37
2019-03-12T21:09:33.605Z,9.43
2019-03-12T21:12:40.695Z,5.90
2019-03-12T21:15:48.058Z,5.40
2019-03-12T21:18:55.150Z,6.77
2019-03-12T21:21:36.308Z,5.87
2019-03-12T21:24:17.125Z,7.57
2019-03-12T21:27:25.663Z,7.43
2019-03-12T21:30:12.883Z,9.80
2019-03-12T21:33:00.666Z,5.83
2019-03-12T21:35:48.439Z,6.93
2019-03-12T21:38:36.231Z,6.30
2019-03-12T21:41:23.994Z,5.87
2019-03-12T21:44:11.832Z,7.27
2019-03-12T21:46:59.647Z,7.70
2019-03-12T21:49:47.461Z,7.53
2019-03-12T21:52:35.289Z,3.93
2019-03-12T21:55:23.344Z,5.80
2019-03-12T21:58:11.179Z,7.60
2019-03-12T22:00:58.974Z,5.57
2019-03-12T22:03:46.742Z,7.73
2019-03-12T22:06:34.521Z,5.07
2019-03-12T22:09:22.289Z,7.80
2019-03-12T22:12:10.075Z,7.70
2019-03-12T22:14:57.848Z,7.07
2019-03-12T22:17:45.923Z,5.53
2019-03-12T22:20:33.699Z,5.57
2019-03-12T22:25:57.081Z,4.67
2019-03-12T22:28:44.856Z,4.70
2019-03-12T22:31:32.983Z,4.43
2019-03-12T22:34:20.741Z,5.60
2019-03-12T22:37:08.521Z,5.37
2019-03-12T22:39:56.302Z,6.93
2019-03-12T22:42:44.366Z,3.97
2019-03-12T22:45:32.547Z,5.40
2019-03-12T22:48:20.319Z,8.50
2019-03-12T22:51:08.107Z,6.13
2019-03-12T22:53:49.119Z,4.97
2019-03-12T22:56:29.979Z,6.40
2019-03-12T22:59:10.966Z,6.20
2019-03-12T23:01:51.818Z,4.80
2019-03-12T23:04:32.782Z,3.30
2019-03-12T23:07:13.858Z,8.13
2019-03-12T23:09:54.768Z,5.37
2019-03-12T23:12:35.426Z,6.63
2019-03-12T23:15:16.819Z,6.17
2019-03-12T23:17:45.271Z,5.17
2019-03-12T23:20:33.058Z,6.37
2019-03-12T23:23:20.829Z,8.47
2019-03-12T23:26:08.618Z,5.50
2019-03-12T23:28:56.402Z,4.83
2019-03-12T23:31:44.191Z,6.43
2019-03-12T23:34:32.020Z,5.23
2019-03-12T23:37:19.814Z,4.60
2019-03-12T23:40:28.312Z,3.90
2019-03-12T23:43:16.089Z,4.63
2019-03-12T23:46:03.864Z,5.83
2019-03-12T23:48:51.638Z,3.30
2019-03-12T23:51:39.406Z,3.57
2019-03-12T23:54:27.194Z,4.03
2019-03-12T23:57:14.990Z,4.37
